Time;durP1;ratioP1;P1;durP2;ratioP2;P2;SDS_P1;SDS_P2;PMS_P1;PMS_P2;Temp;Humidity;BMP_temperature;BMP_pressure;BME280_temperature;BME280_humidity;BME280_pressure;Samples;Min_cycle;Max_cycle;Signal;HPM_P1;HPM_P2
2022/08/24 00:00:53;;;;;;;5.50;4.33;;;;;;;;;;5093138;28;20231;-83
2022/08/24 00:03:21;;;;;;;5.00;4.30;;;;;;;;;;5105331;28;20235;-84
2022/08/24 00:05:48;;;;;;;4.73;4.13;;;;;;;;;;5098989;28;20219;-83
2022/08/24 00:08:15;;;;;;;4.63;4.17;;;;;;;;;;5103285;28;20237;-83
2022/08/24 00:10:42;;;;;;;4.60;4.20;;;;;;;;;;5092915;28;20236;-84
2022/08/24 00:13:09;;;;;;;7.73;3.93;;;;;;;;;;5092766;28;20211;-83
2022/08/24 00:15:36;;;;;;;8.20;5.37;;;;;;;;;;5092787;28;20227;-85
2022/08/24 00:18:02;;;;;;;4.60;4.20;;;;;;;;;;5093546;28;20203;-85
2022/08/24 00:20:31;;;;;;;4.93;4.43;;;;;;;;;;5093087;28;20238;-85
2022/08/24 00:22:58;;;;;;;11.23;5.30;;;;;;;;;;5092964;28;20214;-84
2022/08/24 00:25:25;;;;;;;8.87;5.37;;;;;;;;;;5092727;28;20778;-85
2022/08/24 00:27:52;;;;;;;6.77;4.73;;;;;;;;;;5093159;28;20208;-82
2022/08/24 00:30:21;;;;;;;5.53;4.60;;;;;;;;;;5092846;28;20196;-83
2022/08/24 00:32:48;;;;;;;6.23;4.63;;;;;;;;;;5092689;28;20596;-85
2022/08/24 00:35:17;;;;;;;5.27;4.60;;;;;;;;;;5092715;28;20196;-85
2022/08/24 00:37:46;;;;;;;7.00;4.63;;;;;;;;;;5092733;28;20694;-85
2022/08/24 00:40:16;;;;;;;6.43;4.50;;;;;;;;;;5092696;28;20204;-85
2022/08/24 00:42:43;;;;;;;5.23;4.17;;;;;;;;;;5092704;28;20208;-84
2022/08/24 00:45:12;;;;;;;5.37;4.90;;;;;;;;;;5098791;28;20231;-85
2022/08/24 00:47:42;;;;;;;6.37;4.77;;;;;;;;;;5100440;28;20208;-83
2022/08/24 00:50:13;;;;;;;5.47;4.83;;;;;;;;;;5092116;28;20196;-84
2022/08/24 00:52:42;;;;;;;6.43;4.50;;;;;;;;;;5093089;28;20234;-85
2022/08/24 00:55:14;;;;;;;4.87;4.30;;;;;;;;;;5091975;28;20342;-84
2022/08/24 00:57:43;;;;;;;5.20;4.70;;;;;;;;;;5092440;28;20203;-85
2022/08/24 01:00:14;;;;;;;5.07;4.20;;;;;;;;;;5106053;28;20595;-82
2022/08/24 01:02:43;;;;;;;5.40;4.27;;;;;;;;;;5085409;28;20234;-85
2022/08/24 01:05:11;;;;;;;6.43;3.90;;;;;;;;;;5099476;28;20338;-83
2022/08/24 01:07:39;;;;;;;4.90;4.30;;;;;;;;;;5096385;28;20196;-84
2022/08/24 01:10:11;;;;;;;5.20;3.73;;;;;;;;;;5100581;28;20204;-84
2022/08/24 01:12:39;;;;;;;4.60;3.73;;;;;;;;;;5092320;28;20193;-83
2022/08/24 01:15:08;;;;;;;7.80;4.43;;;;;;;;;;5102945;28;20219;-85
2022/08/24 01:20:22;;;;;;;4.13;3.80;;;;;;;;;;5103413;28;20222;-84
2022/08/24 01:22:59;;;;;;;4.40;4.00;;;;;;;;;;5093760;28;20238;-83
2022/08/24 01:25:28;;;;;;;3.63;3.43;;;;;;;;;;5091385;28;20227;-84
2022/08/24 01:27:57;;;;;;;4.37;3.97;;;;;;;;;;5092039;28;20196;-84
2022/08/24 01:30:24;;;;;;;4.07;3.40;;;;;;;;;;5102362;28;20206;-86
2022/08/24 01:32:55;;;;;;;4.23;3.87;;;;;;;;;;5094637;28;20219;-84
2022/08/24 01:35:22;;;;;;;4.37;3.97;;;;;;;;;;5091755;28;20211;-85
2022/08/24 01:37:49;;;;;;;3.87;3.57;;;;;;;;;;5091355;28;20211;-84
2022/08/24 01:40:16;;;;;;;5.37;4.10;;;;;;;;;;5091680;28;20215;-84
2022/08/24 01:42:48;;;;;;;4.47;4.07;;;;;;;;;;5091230;28;20203;-79
2022/08/24 01:45:15;;;;;;;4.43;3.80;;;;;;;;;;5078041;28;20255;-81
2022/08/24 01:47:42;;;;;;;7.13;4.23;;;;;;;;;;5091607;28;20204;-81
2022/08/24 01:50:09;;;;;;;4.33;4.03;;;;;;;;;;5105192;28;20200;-83
2022/08/24 01:52:38;;;;;;;4.43;3.97;;;;;;;;;;5091498;28;20212;-84
2022/08/24 01:55:06;;;;;;;5.70;3.47;;;;;;;;;;5090803;28;20236;-85
2022/08/24 01:57:33;;;;;;;3.43;3.13;;;;;;;;;;5091107;28;20200;-85
2022/08/24 02:00:02;;;;;;;3.77;3.30;;;;;;;;;;5090902;28;20345;-83
2022/08/24 02:02:31;;;;;;;8.50;3.93;;;;;;;;;;5091222;28;20254;-83
2022/08/24 02:04:58;;;;;;;3.67;3.33;;;;;;;;;;5102411;28;20291;-81
2022/08/24 02:07:25;;;;;;;5.27;3.63;;;;;;;;;;5093787;28;20211;-84
2022/08/24 02:09:52;;;;;;;3.90;3.60;;;;;;;;;;5091076;28;20204;-81
2022/08/24 02:12:20;;;;;;;5.07;3.80;;;;;;;;;;5090501;28;20203;-84
2022/08/24 02:14:47;;;;;;;4.37;3.97;;;;;;;;;;5091081;28;20203;-83
2022/08/24 02:17:15;;;;;;;3.90;3.50;;;;;;;;;;5090633;28;20223;-85
2022/08/24 02:19:42;;;;;;;4.27;3.80;;;;;;;;;;5090809;28;20200;-83
2022/08/24 02:22:09;;;;;;;4.50;4.20;;;;;;;;;;5090857;28;20204;-83
2022/08/24 02:24:36;;;;;;;4.40;4.00;;;;;;;;;;5090604;28;20196;-83
2022/08/24 02:27:03;;;;;;;5.27;3.80;;;;;;;;;;5090364;28;20239;-83
2022/08/24 02:29:30;;;;;;;4.50;4.20;;;;;;;;;;5094011;28;20669;-83
2022/08/24 02:31:57;;;;;;;5.73;4.60;;;;;;;;;;5101264;28;20598;-81
2022/08/24 02:34:25;;;;;;;6.07;4.53;;;;;;;;;;5090439;28;20231;-83
2022/08/24 02:36:53;;;;;;;4.87;4.40;;;;;;;;;;5090552;28;20207;-86
2022/08/24 02:39:20;;;;;;;4.20;3.90;;;;;;;;;;5104826;28;20230;-84
2022/08/24 02:41:47;;;;;;;5.07;4.63;;;;;;;;;;5090617;28;20203;-82
2022/08/24 02:44:14;;;;;;;4.23;3.93;;;;;;;;;;5103296;28;20214;-82
2022/08/24 02:46:41;;;;;;;6.07;4.13;;;;;;;;;;5091464;28;20228;-84
2022/08/24 02:49:08;;;;;;;4.70;4.30;;;;;;;;;;5090666;28;20196;-82
2022/08/24 02:51:36;;;;;;;4.53;4.07;;;;;;;;;;5089823;28;20601;-82
2022/08/24 02:54:04;;;;;;;4.77;4.37;;;;;;;;;;5090440;28;20291;-83
2022/08/24 02:56:31;;;;;;;4.70;4.03;;;;;;;;;;5089954;28;20224;-82
2022/08/24 02:58:58;;;;;;;4.33;3.93;;;;;;;;;;5105331;28;20273;-82
2022/08/24 03:01:25;;;;;;;5.13;4.67;;;;;;;;;;5090348;28;20606;-80
2022/08/24 03:03:52;;;;;;;4.70;4.30;;;;;;;;;;5092553;28;20231;-81
2022/08/24 03:06:19;;;;;;;6.23;5.03;;;;;;;;;;5101944;28;20615;-80
2022/08/24 03:08:47;;;;;;;4.90;4.53;;;;;;;;;;5090469;28;20208;-80
2022/08/24 03:11:14;;;;;;;7.57;4.60;;;;;;;;;;5090069;28;20197;-81
2022/08/24 03:13:41;;;;;;;7.20;4.20;;;;;;;;;;5103597;28;20204;-82
2022/08/24 03:16:08;;;;;;;6.20;4.20;;;;;;;;;;5090958;28;20196;-83
2022/08/24 03:18:35;;;;;;;6.43;4.20;;;;;;;;;;5101716;28;20253;-81
2022/08/24 03:21:02;;;;;;;4.57;4.17;;;;;;;;;;5092368;28;20200;-81
2022/08/24 03:23:29;;;;;;;4.50;4.10;;;;;;;;;;5090100;28;20783;-82
2022/08/24 03:25:58;;;;;;;4.87;3.90;;;;;;;;;;5090106;28;20224;-82
2022/08/24 03:28:25;;;;;;;5.07;4.60;;;;;;;;;;5090445;28;20227;-82
2022/08/24 03:30:51;;;;;;;5.47;4.97;;;;;;;;;;5104486;28;20252;-83
2022/08/24 03:33:18;;;;;;;4.77;4.37;;;;;;;;;;5089325;28;20979;-77
2022/08/24 03:35:45;;;;;;;4.17;3.87;;;;;;;;;;5093058;28;20208;-77
2022/08/24 03:38:12;;;;;;;5.43;4.87;;;;;;;;;;5092536;28;20221;-78
2022/08/24 03:40:39;;;;;;;4.93;4.43;;;;;;;;;;5093641;28;20239;-78
2022/08/24 03:43:07;;;;;;;4.80;4.40;;;;;;;;;;5098764;28;20594;-78
2022/08/24 03:45:35;;;;;;;5.57;5.07;;;;;;;;;;5102058;28;20227;-78
2022/08/24 03:48:01;;;;;;;5.77;5.13;;;;;;;;;;5107990;28;20204;-77
2022/08/24 03:50:28;;;;;;;5.00;4.60;;;;;;;;;;5092732;28;20686;-78
2022/08/24 03:52:55;;;;;;;4.20;3.90;;;;;;;;;;5093663;28;20282;-82
2022/08/24 03:55:22;;;;;;;5.13;4.67;;;;;;;;;;5093566;28;20766;-83
2022/08/24 03:57:48;;;;;;;8.60;4.33;;;;;;;;;;5093407;28;20196;-87
2022/08/24 04:00:17;;;;;;;7.53;4.60;;;;;;;;;;5093210;28;20596;-83
2022/08/24 04:02:44;;;;;;;8.43;4.93;;;;;;;;;;5093157;28;20192;-83
2022/08/24 04:05:12;;;;;;;5.57;4.83;;;;;;;;;;5093119;28;20215;-82
2022/08/24 04:07:38;;;;;;;5.00;4.60;;;;;;;;;;5093189;28;20234;-82
2022/08/24 04:10:06;;;;;;;5.23;4.83;;;;;;;;;;5093387;28;20228;-82
2022/08/24 04:12:33;;;;;;;5.27;4.77;;;;;;;;;;5093170;28;20595;-82
2022/08/24 04:15:00;;;;;;;5.47;4.70;;;;;;;;;;5093533;28;20204;-83
2022/08/24 04:17:29;;;;;;;5.93;4.30;;;;;;;;;;5093288;28;20226;-80
2022/08/24 04:19:58;;;;;;;5.03;4.43;;;;;;;;;;5093358;28;20231;-81
2022/08/24 04:22:26;;;;;;;5.27;4.37;;;;;;;;;;5093392;28;20204;-83
2022/08/24 04:24:53;;;;;;;4.80;4.33;;;;;;;;;;5093570;28;20211;-82
2022/08/24 04:27:20;;;;;;;4.53;4.13;;;;;;;;;;5093290;28;20282;-82
2022/08/24 04:29:47;;;;;;;4.57;4.13;;;;;;;;;;5093102;28;20651;-82
2022/08/24 04:32:15;;;;;;;3.83;3.53;;;;;;;;;;5093004;28;20257;-82
2022/08/24 04:34:43;;;;;;;6.73;4.17;;;;;;;;;;5092594;28;20231;-82
2022/08/24 04:37:10;;;;;;;5.03;4.57;;;;;;;;;;5092904;28;20204;-82
2022/08/24 04:39:37;;;;;;;6.03;4.80;;;;;;;;;;5092518;28;20204;-82
2022/08/24 04:42:05;;;;;;;7.00;4.30;;;;;;;;;;5092769;28;20594;-82
2022/08/24 04:44:32;;;;;;;4.20;3.80;;;;;;;;;;5091972;28;20219;-83
2022/08/24 04:47:00;;;;;;;4.83;4.20;;;;;;;;;;5092475;28;21010;-82
2022/08/24 04:49:27;;;;;;;5.40;4.37;;;;;;;;;;5093175;28;20204;-82
2022/08/24 04:51:55;;;;;;;4.53;4.03;;;;;;;;;;5092374;28;20239;-82
2022/08/24 04:54:23;;;;;;;3.83;3.63;;;;;;;;;;5092498;28;20208;-82
2022/08/24 04:56:50;;;;;;;5.93;4.13;;;;;;;;;;5092481;28;20200;-82
2022/08/24 04:59:17;;;;;;;4.70;3.37;;;;;;;;;;5091975;28;20203;-82
2022/08/24 05:01:43;;;;;;;4.87;3.10;;;;;;;;;;5092645;28;20203;-82
2022/08/24 05:04:10;;;;;;;3.77;3.43;;;;;;;;;;5092417;28;20214;-82
2022/08/24 05:06:37;;;;;;;4.00;3.63;;;;;;;;;;5092288;28;20224;-83
2022/08/24 05:09:05;;;;;;;4.17;3.87;;;;;;;;;;5092372;28;20199;-82
2022/08/24 05:11:32;;;;;;;5.93;4.00;;;;;;;;;;5091942;28;20291;-85
2022/08/24 05:13:59;;;;;;;3.63;3.37;;;;;;;;;;5092082;28;20204;-82
2022/08/24 05:16:26;;;;;;;4.77;3.70;;;;;;;;;;5092169;28;20619;-82
2022/08/24 05:18:53;;;;;;;3.30;3.00;;;;;;;;;;5092290;28;20279;-82
2022/08/24 05:21:21;;;;;;;5.77;3.80;;;;;;;;;;5091739;28;20674;-83
2022/08/24 05:23:48;;;;;;;4.20;3.77;;;;;;;;;;5092369;28;20196;-84
2022/08/24 05:26:18;;;;;;;6.70;3.53;;;;;;;;;;5091800;28;20224;-83
2022/08/24 05:28:46;;;;;;;6.40;3.70;;;;;;;;;;5091970;28;20204;-83
2022/08/24 05:31:15;;;;;;;6.60;3.80;;;;;;;;;;5091818;28;20283;-82
2022/08/24 05:33:42;;;;;;;6.83;3.33;;;;;;;;;;5092227;28;20207;-83
2022/08/24 05:36:16;;;;;;;11.80;4.53;;;;;;;;;;5089787;28;20215;-83
2022/08/24 05:38:43;;;;;;;5.80;3.30;;;;;;;;;;5071525;28;20700;-83
2022/08/24 05:41:10;;;;;;;4.83;4.17;;;;;;;;;;5071445;28;20212;-83
2022/08/24 05:43:38;;;;;;;4.90;3.80;;;;;;;;;;5079349;28;20636;-81
2022/08/24 05:46:05;;;;;;;5.03;3.50;;;;;;;;;;5091584;28;20207;-84
2022/08/24 05:48:33;;;;;;;5.07;3.87;;;;;;;;;;5077822;28;20207;-86
2022/08/24 05:51:00;;;;;;;6.37;4.03;;;;;;;;;;5091740;28;20673;-83
2022/08/24 05:53:27;;;;;;;4.20;3.80;;;;;;;;;;5091165;28;20211;-81
2022/08/24 05:55:53;;;;;;;5.47;4.23;;;;;;;;;;5091886;28;20582;-82
2022/08/24 05:58:20;;;;;;;4.83;4.40;;;;;;;;;;5104984;28;20228;-81
2022/08/24 06:00:49;;;;;;;7.67;4.30;;;;;;;;;;5092749;28;20208;-82
2022/08/24 06:03:16;;;;;;;8.20;3.83;;;;;;;;;;5091540;28;20257;-82
2022/08/24 06:05:44;;;;;;;7.90;4.53;;;;;;;;;;5077278;28;20211;-82
2022/08/24 06:08:11;;;;;;;5.63;3.87;;;;;;;;;;5091194;28;20239;-82
2022/08/24 06:10:41;;;;;;;7.30;3.97;;;;;;;;;;5093546;28;20200;-81
2022/08/24 06:13:09;;;;;;;8.57;4.20;;;;;;;;;;5094679;28;20213;-81
2022/08/24 06:15:37;;;;;;;5.53;4.10;;;;;;;;;;5086153;28;20200;-82
2022/08/24 06:18:06;;;;;;;6.47;4.47;;;;;;;;;;5091504;28;20244;-81
2022/08/24 06:20:39;;;;;;;7.03;5.23;;;;;;;;;;5091395;28;20201;-83
2022/08/24 06:23:07;;;;;;;6.03;3.80;;;;;;;;;;5077968;28;20208;-81
2022/08/24 06:28:18;;;;;;;5.40;4.07;;;;;;;;;;5091145;28;20239;-82
2022/08/24 06:30:45;;;;;;;6.97;4.97;;;;;;;;;;5090790;28;20670;-82
2022/08/24 06:33:13;;;;;;;6.83;4.27;;;;;;;;;;5090974;28;20556;-80
2022/08/24 06:35:40;;;;;;;6.77;3.97;;;;;;;;;;5078614;28;20637;-83
2022/08/24 06:38:07;;;;;;;7.20;4.10;;;;;;;;;;5089470;28;20279;-82
2022/08/24 06:40:34;;;;;;;8.93;4.30;;;;;;;;;;5091108;28;20686;-82
2022/08/24 06:43:03;;;;;;;8.47;4.60;;;;;;;;;;5090980;28;20291;-81
2022/08/24 06:45:29;;;;;;;6.57;4.37;;;;;;;;;;5091248;28;20277;-81
2022/08/24 06:47:56;;;;;;;10.93;4.90;;;;;;;;;;5090327;28;20227;-81
2022/08/24 06:50:25;;;;;;;8.80;3.70;;;;;;;;;;5077868;28;20208;-80
2022/08/24 06:52:52;;;;;;;9.40;4.40;;;;;;;;;;5091009;28;20682;-81
2022/08/24 06:55:18;;;;;;;8.50;3.90;;;;;;;;;;5090217;28;20235;-80
2022/08/24 06:57:45;;;;;;;8.90;4.50;;;;;;;;;;5090762;28;20215;-81
2022/08/24 07:00:13;;;;;;;8.03;4.33;;;;;;;;;;5090656;28;20212;-84
2022/08/24 07:02:41;;;;;;;10.13;4.80;;;;;;;;;;5090748;28;20211;-80
2022/08/24 07:05:08;;;;;;;13.77;4.33;;;;;;;;;;5090673;28;20196;-82
2022/08/24 07:07:37;;;;;;;10.67;4.33;;;;;;;;;;5094326;28;20228;-80
2022/08/24 07:10:05;;;;;;;11.17;4.60;;;;;;;;;;5094656;28;20200;-81
2022/08/24 07:12:32;;;;;;;7.97;3.90;;;;;;;;;;5094665;28;20208;-81
2022/08/24 07:14:59;;;;;;;11.10;4.10;;;;;;;;;;5094866;28;20200;-80
2022/08/24 07:17:25;;;;;;;8.20;3.60;;;;;;;;;;5094517;28;20207;-81
2022/08/24 07:19:52;;;;;;;12.00;4.20;;;;;;;;;;5094460;28;20686;-80
2022/08/24 07:22:19;;;;;;;6.93;4.07;;;;;;;;;;5094264;28;20212;-81
2022/08/24 07:24:47;;;;;;;7.03;3.93;;;;;;;;;;5094278;28;20220;-81
2022/08/24 07:27:14;;;;;;;8.43;4.07;;;;;;;;;;5094258;28;20277;-80
2022/08/24 07:29:41;;;;;;;10.17;3.77;;;;;;;;;;5093921;28;20204;-81
2022/08/24 07:32:08;;;;;;;12.37;4.00;;;;;;;;;;5094315;28;20204;-80
2022/08/24 07:34:36;;;;;;;6.77;3.37;;;;;;;;;;5094322;28;20192;-82
2022/08/24 07:37:04;;;;;;;11.33;3.80;;;;;;;;;;5094181;28;20767;-81
2022/08/24 07:39:31;;;;;;;9.37;4.43;;;;;;;;;;5095550;28;20200;-82
2022/08/24 07:42:00;;;;;;;9.70;4.53;;;;;;;;;;5106402;28;20219;-81
2022/08/24 07:44:26;;;;;;;7.33;4.03;;;;;;;;;;5108318;28;20204;-81
2022/08/24 07:46:53;;;;;;;7.27;3.63;;;;;;;;;;5093847;28;20228;-80
2022/08/24 07:49:20;;;;;;;5.43;3.37;;;;;;;;;;5093761;28;20212;-80
2022/08/24 07:51:47;;;;;;;8.37;3.73;;;;;;;;;;5093659;28;20204;-83
2022/08/24 07:54:15;;;;;;;6.87;4.00;;;;;;;;;;5093705;28;20204;-80
2022/08/24 07:56:42;;;;;;;9.57;3.97;;;;;;;;;;5093342;28;20212;-80
2022/08/24 07:59:10;;;;;;;6.30;3.60;;;;;;;;;;5099290;28;20207;-81
2022/08/24 08:01:37;;;;;;;6.47;4.13;;;;;;;;;;5101751;28;20200;-81
2022/08/24 08:04:05;;;;;;;7.07;3.10;;;;;;;;;;5093873;28;20208;-80
2022/08/24 08:06:31;;;;;;;11.07;3.23;;;;;;;;;;5093505;28;20203;-80
2022/08/24 08:08:58;;;;;;;5.53;3.23;;;;;;;;;;5091499;28;20208;-80
2022/08/24 08:11:25;;;;;;;5.70;3.00;;;;;;;;;;5073608;28;20209;-81
2022/08/24 08:13:53;;;;;;;8.67;3.20;;;;;;;;;;5088114;28;20205;-81
2022/08/24 08:16:21;;;;;;;4.03;2.90;;;;;;;;;;5093259;28;20232;-81
2022/08/24 08:18:48;;;;;;;6.50;3.60;;;;;;;;;;5093189;28;20208;-80
2022/08/24 08:26:39;;;;;;;6.60;3.00;;;;;;;;;;5081080;28;20256;-81
2022/08/24 08:29:07;;;;;;;5.83;3.27;;;;;;;;;;5093321;28;20223;-81
2022/08/24 08:31:36;;;;;;;9.83;3.40;;;;;;;;;;5093684;28;20203;-81
2022/08/24 08:34:03;;;;;;;6.67;3.27;;;;;;;;;;5093296;28;20204;-81
2022/08/24 08:36:30;;;;;;;4.57;3.30;;;;;;;;;;5093292;28;20208;-80
2022/08/24 08:38:57;;;;;;;7.20;3.27;;;;;;;;;;5093449;28;20253;-81
2022/08/24 08:42:02;;;;;;;9.93;2.90;;;;;;;;;;5092907;28;20279;-81
2022/08/24 08:44:39;;;;;;;10.13;3.97;;;;;;;;;;5093163;28;20204;-81
2022/08/24 08:47:19;;;;;;;8.77;3.77;;;;;;;;;;5092908;28;20254;-81
2022/08/24 08:50:04;;;;;;;13.17;4.47;;;;;;;;;;5094839;28;20207;-82
2022/08/24 08:52:50;;;;;;;9.93;3.40;;;;;;;;;;5102574;28;20216;-82
2022/08/24 08:55:26;;;;;;;5.20;3.37;;;;;;;;;;5092583;28;20777;-81
2022/08/24 08:58:00;;;;;;;8.67;3.87;;;;;;;;;;5101916;28;20206;-81
2022/08/24 09:00:40;;;;;;;9.97;3.40;;;;;;;;;;5096771;28;20203;-81
2022/08/24 09:03:21;;;;;;;10.83;3.83;;;;;;;;;;5092659;28;20670;-81
2022/08/24 09:05:57;;;;;;;8.23;4.00;;;;;;;;;;5092695;28;20283;-81
2022/08/24 09:08:35;;;;;;;7.47;3.00;;;;;;;;;;5092673;28;20306;-80
2022/08/24 09:11:08;;;;;;;8.67;4.03;;;;;;;;;;5092486;28;20202;-80
2022/08/24 09:13:44;;;;;;;9.40;3.13;;;;;;;;;;5092377;28;20200;-80
2022/08/24 09:16:32;;;;;;;13.17;3.80;;;;;;;;;;5092761;28;20235;-80
2022/08/24 09:19:13;;;;;;;5.77;3.23;;;;;;;;;;5089146;28;20204;-81
2022/08/24 09:21:50;;;;;;;4.10;2.93;;;;;;;;;;5092570;28;20208;-81
2022/08/24 09:24:27;;;;;;;3.20;2.70;;;;;;;;;;5092101;28;20210;-80
2022/08/24 09:26:59;;;;;;;5.10;2.53;;;;;;;;;;5092101;28;20199;-83
2022/08/24 09:29:39;;;;;;;5.03;2.50;;;;;;;;;;5090775;28;20641;-81
2022/08/24 09:32:24;;;;;;;7.43;2.70;;;;;;;;;;5091985;28;20207;-82
2022/08/24 09:34:56;;;;;;;9.43;3.37;;;;;;;;;;5091809;28;20207;-80
2022/08/24 09:37:34;;;;;;;7.40;3.20;;;;;;;;;;5091708;28;20591;-82
2022/08/24 09:40:04;;;;;;;4.63;3.27;;;;;;;;;;5091569;28;20690;-80
2022/08/24 09:42:57;;;;;;;10.27;3.63;;;;;;;;;;5091668;28;20208;-81
2022/08/24 09:45:43;;;;;;;7.50;3.03;;;;;;;;;;5079829;28;20208;-81
2022/08/24 09:48:22;;;;;;;5.47;2.93;;;;;;;;;;5091579;28;20238;-80
2022/08/24 09:51:32;;;;;;;6.87;3.40;;;;;;;;;;5091485;28;20204;-81
2022/08/24 09:54:32;;;;;;;7.77;3.77;;;;;;;;;;5069333;28;20196;-81
2022/08/24 09:57:15;;;;;;;9.87;3.37;;;;;;;;;;5091527;28;20208;-80
2022/08/24 10:00:01;;;;;;;15.97;3.60;;;;;;;;;;5091358;28;20204;-82
2022/08/24 10:02:40;;;;;;;12.33;3.53;;;;;;;;;;5091562;28;20295;-80
2022/08/24 10:05:13;;;;;;;7.83;3.60;;;;;;;;;;5091540;28;20287;-80
2022/08/24 10:07:48;;;;;;;14.80;5.00;;;;;;;;;;5090793;28;20228;-80
2022/08/24 10:10:22;;;;;;;12.80;4.90;;;;;;;;;;5104451;28;20206;-81
2022/08/24 10:12:58;;;;;;;10.13;3.70;;;;;;;;;;5096942;28;20591;-81
2022/08/24 10:15:28;;;;;;;15.13;4.67;;;;;;;;;;5097739;28;20204;-81
2022/08/24 10:18:08;;;;;;;9.13;3.70;;;;;;;;;;5090917;28;20208;-81
2022/08/24 10:20:48;;;;;;;8.23;5.03;;;;;;;;;;5091043;28;20674;-81
2022/08/24 10:23:37;;;;;;;7.13;3.87;;;;;;;;;;5091315;28;20207;-81
2022/08/24 10:26:09;;;;;;;13.00;4.50;;;;;;;;;;5091123;28;20197;-81
2022/08/24 10:28:48;;;;;;;12.13;4.37;;;;;;;;;;5100756;28;20225;-80
2022/08/24 10:31:19;;;;;;;13.63;4.00;;;;;;;;;;5093320;28;20329;-81
2022/08/24 10:33:56;;;;;;;17.47;4.50;;;;;;;;;;5091100;28;20200;-80
2022/08/24 10:36:44;;;;;;;11.27;4.43;;;;;;;;;;5105152;28;20211;-80
2022/08/24 10:39:41;;;;;;;10.13;4.50;;;;;;;;;;5090550;28;20207;-80
2022/08/24 10:45:30;;;;;;;14.43;4.30;;;;;;;;;;5083503;28;20300;-80
2022/08/24 10:48:10;;;;;;;11.77;4.27;;;;;;;;;;5095351;28;20224;-80
2022/08/24 10:50:49;;;;;;;10.77;4.20;;;;;;;;;;5090630;28;20257;-80
2022/08/24 10:53:27;;;;;;;8.37;4.00;;;;;;;;;;5090618;28;20204;-81
2022/08/24 10:56:12;;;;;;;16.77;4.80;;;;;;;;;;5077012;28;20649;-80
2022/08/24 10:58:57;;;;;;;10.73;4.90;;;;;;;;;;5090601;28;20638;-81
2022/08/24 11:01:29;;;;;;;13.13;4.53;;;;;;;;;;5090251;28;20590;-80
2022/08/24 11:04:00;;;;;;;11.87;5.17;;;;;;;;;;5090418;28;20215;-80
2022/08/24 11:06:30;;;;;;;10.70;4.93;;;;;;;;;;5100073;28;20195;-81
2022/08/24 11:09:01;;;;;;;13.55;5.25;;;;;;;;;;5094128;28;20251;-80
2022/08/24 11:11:31;;;;;;;13.60;4.75;;;;;;;;;;5090298;28;20636;-80
2022/08/24 11:14:00;;;;;;;10.15;5.18;;;;;;;;;;5090279;28;20670;-80
2022/08/24 11:16:31;;;;;;;9.70;5.43;;;;;;;;;;5089726;28;20207;-80
2022/08/24 11:19:00;;;;;;;13.55;5.35;;;;;;;;;;5089899;28;20211;-81
2022/08/24 11:21:46;;;;;;;15.20;5.78;;;;;;;;;;5090071;28;20639;-82
2022/08/24 11:24:25;;;;;;;11.80;5.07;;;;;;;;;;5090281;28;20208;-81
2022/08/24 11:26:55;;;;;;;10.53;5.30;;;;;;;;;;5090011;28;20214;-80
2022/08/24 11:29:29;;;;;;;10.27;5.10;;;;;;;;;;5089978;28;20232;-80
2022/08/24 11:31:58;;;;;;;12.77;5.13;;;;;;;;;;5089946;28;20196;-80
2022/08/24 11:34:34;;;;;;;14.10;5.37;;;;;;;;;;5090042;28;20209;-80
2022/08/24 11:37:03;;;;;;;14.60;5.50;;;;;;;;;;5071840;28;20211;-80
2022/08/24 11:39:33;;;;;;;12.23;5.43;;;;;;;;;;5089495;28;20294;-79
2022/08/24 11:42:05;;;;;;;17.40;5.32;;;;;;;;;;5089752;28;20258;-80
2022/08/24 11:44:40;;;;;;;13.23;6.40;;;;;;;;;;5090220;28;20682;-80
2022/08/24 11:47:22;;;;;;;12.73;6.15;;;;;;;;;;5089988;28;20230;-80
2022/08/24 11:49:54;;;;;;;12.90;5.75;;;;;;;;;;5089513;28;20259;-81
2022/08/24 11:52:33;;;;;;;19.20;6.90;;;;;;;;;;5091347;28;20223;-80
2022/08/24 11:55:04;;;;;;;19.63;7.03;;;;;;;;;;5093238;28;20223;-80
2022/08/24 11:57:37;;;;;;;19.27;7.30;;;;;;;;;;5107657;28;20678;-80
2022/08/24 12:00:08;;;;;;;18.83;7.20;;;;;;;;;;5093185;28;20200;-80
2022/08/24 12:02:42;;;;;;;13.87;6.20;;;;;;;;;;5107984;28;20252;-79
2022/08/24 12:05:19;;;;;;;17.90;7.03;;;;;;;;;;5093190;28;20235;-80
2022/08/24 12:07:51;;;;;;;19.53;7.27;;;;;;;;;;5079251;28;20597;-80
2022/08/24 12:10:25;;;;;;;22.80;6.97;;;;;;;;;;5093255;28;20208;-80
2022/08/24 12:12:56;;;;;;;22.43;7.83;;;;;;;;;;5079303;28;20207;-81
2022/08/24 12:15:33;;;;;;;12.90;6.20;;;;;;;;;;5093003;28;20628;-80
2022/08/24 12:18:04;;;;;;;19.13;7.47;;;;;;;;;;5079442;28;20261;-80
2022/08/24 12:20:34;;;;;;;16.67;6.82;;;;;;;;;;5093124;28;20200;-79
2022/08/24 12:23:04;;;;;;;14.77;6.13;;;;;;;;;;5092932;28;20660;-80
2022/08/24 12:28:21;;;;;;;17.93;6.47;;;;;;;;;;5087188;28;20276;-79
2022/08/24 12:30:48;;;;;;;20.27;6.35;;;;;;;;;;5098762;28;20208;-79
2022/08/24 12:33:18;;;;;;;22.08;6.47;;;;;;;;;;5078928;28;20200;-80
2022/08/24 12:35:47;;;;;;;18.73;7.13;;;;;;;;;;5105131;28;20583;-80
2022/08/24 12:38:17;;;;;;;19.45;7.40;;;;;;;;;;5093629;28;20208;-79
2022/08/24 12:40:50;;;;;;;15.27;6.43;;;;;;;;;;5092788;28;20212;-80
2022/08/24 12:43:22;;;;;;;13.93;5.60;;;;;;;;;;5092544;28;20196;-79
2022/08/24 12:45:49;;;;;;;21.52;6.97;;;;;;;;;;5092656;28;20322;-79
2022/08/24 12:48:24;;;;;;;14.05;5.60;;;;;;;;;;5092468;28;20681;-80
2022/08/24 12:51:02;;;;;;;19.00;6.93;;;;;;;;;;5092145;28;20214;-80
2022/08/24 12:53:47;;;;;;;19.13;5.65;;;;;;;;;;5106493;28;20208;-80
2022/08/24 12:56:29;;;;;;;19.65;7.03;;;;;;;;;;5091956;28;20313;-79
2022/08/24 12:59:03;;;;;;;18.58;6.55;;;;;;;;;;5092325;28;20569;-79
2022/08/24 13:01:34;;;;;;;18.95;6.68;;;;;;;;;;5091942;28;20702;-79
2022/08/24 13:04:31;;;;;;;18.50;5.90;;;;;;;;;;5092623;28;20228;-80
2022/08/24 13:07:02;;;;;;;24.75;6.38;;;;;;;;;;5090601;28;20208;-80
2022/08/24 13:09:32;;;;;;;18.67;6.03;;;;;;;;;;5078603;28;20243;-80
2022/08/24 13:12:00;;;;;;;19.27;5.93;;;;;;;;;;5092021;28;20208;-80
2022/08/24 13:14:29;;;;;;;20.25;6.00;;;;;;;;;;5092266;28;20224;-79
2022/08/24 13:17:12;;;;;;;23.17;6.28;;;;;;;;;;5091742;28;20274;-80
2022/08/24 13:19:42;;;;;;;23.27;6.30;;;;;;;;;;5091788;28;20767;-81
2022/08/24 13:22:38;;;;;;;24.35;6.90;;;;;;;;;;5091789;28;20204;-80
2022/08/24 13:25:22;;;;;;;17.00;6.25;;;;;;;;;;5080416;28;20257;-80
2022/08/24 13:28:04;;;;;;;21.30;5.68;;;;;;;;;;5094858;28;20670;-79
2022/08/24 13:31:18;;;;;;;21.30;6.47;;;;;;;;;;5100076;28;20238;-80
2022/08/24 13:33:46;;;;;;;17.00;6.22;;;;;;;;;;5086761;28;20212;-80
2022/08/24 13:36:52;;;;;;;20.80;6.55;;;;;;;;;;5090932;28;20208;-81
2022/08/24 13:39:44;;;;;;;16.92;5.15;;;;;;;;;;5106062;28;20204;-79
2022/08/24 13:42:20;;;;;;;21.45;6.72;;;;;;;;;;5080994;28;20201;-80
2022/08/24 13:45:08;;;;;;;21.52;6.28;;;;;;;;;;5090970;28;20221;-81
2022/08/24 13:47:48;;;;;;;14.05;5.60;;;;;;;;;;5091662;28;20207;-80
2022/08/24 13:50:30;;;;;;;16.77;6.13;;;;;;;;;;5077013;28;20227;-80
2022/08/24 13:53:14;;;;;;;14.85;5.65;;;;;;;;;;5091460;28;20208;-80
2022/08/24 13:55:45;;;;;;;19.40;6.13;;;;;;;;;;5091151;28;20232;-79
2022/08/24 13:58:25;;;;;;;24.13;5.88;;;;;;;;;;5091112;28;20211;-80
2022/08/24 14:00:55;;;;;;;30.50;6.85;;;;;;;;;;5105441;28;20223;-80
2022/08/24 14:03:39;;;;;;;19.60;5.50;;;;;;;;;;5091065;28;20291;-80
2022/08/24 14:06:28;;;;;;;19.55;5.43;;;;;;;;;;5077102;28;20682;-80
2022/08/24 14:09:16;;;;;;;11.95;5.35;;;;;;;;;;5090887;28;20216;-83
2022/08/24 14:12:08;;;;;;;16.40;5.40;;;;;;;;;;5099278;28;20214;-80
2022/08/24 14:14:50;;;;;;;15.40;5.28;;;;;;;;;;5076658;28;20200;-80
2022/08/24 14:20:13;;;;;;;13.25;5.05;;;;;;;;;;5100959;28;20211;-80
2022/08/24 14:22:53;;;;;;;13.45;5.80;;;;;;;;;;5094159;28;20230;-80
2022/08/24 14:25:23;;;;;;;14.25;5.55;;;;;;;;;;5101814;28;20195;-79
2022/08/24 14:27:52;;;;;;;11.88;5.40;;;;;;;;;;5092863;28;20200;-80
2022/08/24 14:30:42;;;;;;;13.85;5.60;;;;;;;;;;5090396;28;20233;-80
2022/08/24 14:33:18;;;;;;;14.10;5.45;;;;;;;;;;5090589;28;20216;-80
2022/08/24 14:35:47;;;;;;;14.43;4.93;;;;;;;;;;5090466;28;20690;-80
2022/08/24 14:38:24;;;;;;;12.18;5.82;;;;;;;;;;5104732;28;20260;-80
2022/08/24 14:41:08;;;;;;;18.73;5.90;;;;;;;;;;5090249;28;20206;-81
2022/08/24 14:43:52;;;;;;;20.95;6.10;;;;;;;;;;5090514;28;20216;-80
2022/08/24 14:46:24;;;;;;;15.02;5.18;;;;;;;;;;5090137;28;20215;-80
2022/08/24 14:49:08;;;;;;;18.13;6.03;;;;;;;;;;5090503;28;20660;-80
2022/08/24 14:51:53;;;;;;;19.27;5.70;;;;;;;;;;5104882;28;20196;-80
2022/08/24 14:54:28;;;;;;;11.38;5.60;;;;;;;;;;5094151;28;20215;-79
2022/08/24 14:57:07;;;;;;;16.38;6.32;;;;;;;;;;5090425;28;20204;-80
2022/08/24 14:59:45;;;;;;;14.60;5.75;;;;;;;;;;5089984;28;20215;-80
2022/08/24 15:02:38;;;;;;;20.88;5.82;;;;;;;;;;5090476;28;20207;-80
2022/08/24 15:05:13;;;;;;;18.45;5.95;;;;;;;;;;5090216;28;20686;-79
2022/08/24 15:07:41;;;;;;;17.58;5.90;;;;;;;;;;5090143;28;20203;-80
2022/08/24 15:10:13;;;;;;;12.00;5.35;;;;;;;;;;5090255;28;20223;-79
2022/08/24 15:12:45;;;;;;;21.57;5.20;;;;;;;;;;5090050;28;20274;-80
2022/08/24 15:15:17;;;;;;;10.85;5.40;;;;;;;;;;5089716;28;20204;-80
2022/08/24 15:17:58;;;;;;;16.60;5.93;;;;;;;;;;5088554;28;20228;-79
2022/08/24 15:20:39;;;;;;;10.77;5.20;;;;;;;;;;5088199;28;20204;-79
2022/08/24 15:23:10;;;;;;;15.80;5.17;;;;;;;;;;5090105;28;20201;-79
2022/08/24 15:25:43;;;;;;;20.65;6.32;;;;;;;;;;5090104;28;20204;-79